FALE

King Shaka International Airport

Durban, South Africa
METAR FALE 250000Z 00000KT 9999 SCT030 18/16 Q1019 NOSIG
Observed Flight Rules
Apr-25 @ 00:00 UTC (30 minutes ago) Visual Flight Rules
Visibility Clouds
10,000+ meters
  • Scattered at 3,000' AGL
Temperatures Readings
Current 18°C / 64°F
Dewpoint 16°C / 61°F
Humidity 88%
Altimeter 30.09" Hg
Pressure 1019 hPa
Elevation 109
METAR FALE 250000Z 00000KT 9999 SCT030 18/16 Q1019 NOSIG
Observed Flight Rules
Apr-25 @ 00:00 UTC
(30 minutes ago)
VFR
Clouds
  • Scattered at 3,000' AGL
Temperature Dewpoint
18°C / 64°F 16°C / 61°F
Humidity Altimeter Pressure
88% 30.09" Hg 1019 hPa